createdAt,value
2023-01-01T00:00:55.924Z,7.8
2023-01-01T00:03:22.789Z,7.7
2023-01-01T00:05:48.146Z,7.6
2023-01-01T00:08:15.055Z,7.6
2023-01-01T00:10:42.084Z,7.5
2023-01-01T00:13:08.688Z,7.5
2023-01-01T00:15:35.574Z,7.5
2023-01-01T00:18:02.355Z,7.4
2023-01-01T00:20:29.180Z,7.4
2023-01-01T00:22:56.119Z,7.5
2023-01-01T00:25:22.895Z,7.4
2023-01-01T00:27:49.698Z,7.4
2023-01-01T00:30:16.671Z,7.5
2023-01-01T00:32:43.486Z,7.5
2023-01-01T00:35:10.412Z,7.5
2023-01-01T00:37:35.782Z,7.6
2023-01-01T00:40:02.515Z,7.6
2023-01-01T00:42:29.321Z,7.7
2023-01-01T00:44:56.167Z,7.8
2023-01-01T00:47:23.007Z,7.8
2023-01-01T00:49:49.856Z,7.8
2023-01-01T00:52:16.671Z,7.8
2023-01-01T00:54:43.551Z,7.7
2023-01-01T00:59:37.338Z,7.7
2023-01-01T01:02:04.065Z,7.8
2023-01-01T01:04:31.057Z,7.8
2023-01-01T01:06:57.726Z,7.7
2023-01-01T01:09:24.646Z,7.7
2023-01-01T01:11:50.113Z,7.7
2023-01-01T01:14:16.964Z,7.8
2023-01-01T01:16:43.711Z,7.8
2023-01-01T01:19:10.538Z,7.9
2023-01-01T01:21:37.425Z,7.8
2023-01-01T01:24:04.205Z,7.9
2023-01-01T01:26:31.022Z,8
2023-01-01T01:28:58.092Z,8
2023-01-01T01:31:24.799Z,8
2023-01-01T01:33:51.577Z,7.7
2023-01-01T01:36:18.381Z,7.6
2023-01-01T01:38:45.222Z,7.6
2023-01-01T01:41:12.078Z,7.6
2023-01-01T01:43:37.557Z,7.5
2023-01-01T01:46:04.323Z,7.6
2023-01-01T01:48:31.277Z,7.7
2023-01-01T01:50:57.989Z,7.7
2023-01-01T01:53:24.877Z,7.7
2023-01-01T01:55:51.749Z,7.9
2023-01-01T01:58:18.524Z,7.9
2023-01-01T02:00:45.382Z,8
2023-01-01T02:03:12.251Z,7.9
2023-01-01T02:05:39.048Z,7.8
2023-01-01T02:08:05.877Z,8.1
2023-01-01T02:10:32.726Z,8.1
2023-01-01T02:12:59.567Z,8.1
2023-01-01T02:15:26.413Z,8
2023-01-01T02:17:51.789Z,7.9
2023-01-01T02:20:18.753Z,7.9
2023-01-01T02:22:45.455Z,7.8
2023-01-01T02:25:12.356Z,7.9
2023-01-01T02:27:39.138Z,8
2023-01-01T02:30:06.088Z,8.1
2023-01-01T02:32:32.929Z,8.2
2023-01-01T02:34:59.652Z,8.4
2023-01-01T02:37:26.506Z,8.4
2023-01-01T02:39:53.342Z,8.2
2023-01-01T02:42:20.207Z,8.2
2023-01-01T02:44:47.027Z,8.2
2023-01-01T02:47:13.958Z,8.2
2023-01-01T02:49:40.704Z,8.2
2023-01-01T02:52:07.552Z,8.2
2023-01-01T02:54:33.007Z,8.4
2023-01-01T02:56:59.811Z,8.2
2023-01-01T02:59:26.675Z,8.3
2023-01-01T03:01:53.481Z,8.6
2023-01-01T03:04:20.318Z,8.4
2023-01-01T03:06:47.166Z,8.5
2023-01-01T03:09:14.017Z,8.5
2023-01-01T03:11:40.848Z,8.5
2023-01-01T03:14:07.704Z,8.7
2023-01-01T03:16:34.520Z,8.6
2023-01-01T03:19:01.369Z,8.6
2023-01-01T03:21:28.316Z,8.7
2023-01-01T03:23:55.077Z,8.9
2023-01-01T03:26:21.899Z,9
2023-01-01T03:28:47.314Z,9
2023-01-01T03:31:14.142Z,9.1
2023-01-01T03:33:40.983Z,9.2
2023-01-01T03:36:07.824Z,9.5
2023-01-01T03:38:34.763Z,9.6
2023-01-01T03:41:01.528Z,9.5
2023-01-01T03:43:28.355Z,9.5
2023-01-01T03:45:55.187Z,9.7
2023-01-01T03:48:22.031Z,9.7
2023-01-01T03:50:48.865Z,9.8
2023-01-01T03:53:15.701Z,10.5
2023-01-01T03:55:42.555Z,11.6
2023-01-01T03:58:09.384Z,12.5
2023-01-01T04:00:34.804Z,12.8
2023-01-01T04:03:01.650Z,12.9
2023-01-01T04:05:29.137Z,13.2
2023-01-01T04:07:55.444Z,13.4
2023-01-01T04:10:22.184Z,13.6
2023-01-01T04:12:49.018Z,13.6
2023-01-01T04:15:15.841Z,13.6
2023-01-01T04:17:42.692Z,13.5
2023-01-01T04:20:09.541Z,13.5
2023-01-01T04:22:36.367Z,13.4
2023-01-01T04:25:03.235Z,13.3
2023-01-01T04:27:30.056Z,13.2
2023-01-01T04:29:56.884Z,13.1
2023-01-01T04:32:22.343Z,13.1
2023-01-01T04:34:49.145Z,13.2
2023-01-01T04:37:15.988Z,13.4
2023-01-01T04:39:42.886Z,13.4
2023-01-01T04:42:09.672Z,13.3
2023-01-01T04:44:36.584Z,13.3
2023-01-01T04:47:03.383Z,13.3
2023-01-01T04:49:30.194Z,13.4
2023-01-01T04:51:57.077Z,13.4
2023-01-01T04:54:23.873Z,13.3
2023-01-01T04:56:50.703Z,13.2
2023-01-01T04:59:17.559Z,13.3
2023-01-01T05:01:44.409Z,13.5
2023-01-01T05:04:09.798Z,13.8
2023-01-01T05:06:36.679Z,13.9
2023-01-01T05:09:03.494Z,14.2
2023-01-01T05:13:57.185Z,14.3
2023-01-01T05:16:24.009Z,14.2
2023-01-01T05:18:50.838Z,14.4
2023-01-01T05:21:17.734Z,14.3
2023-01-01T05:23:44.516Z,14.4
2023-01-01T05:26:11.368Z,14.4
2023-01-01T05:28:38.685Z,14.4
2023-01-01T05:31:05.085Z,14.5
2023-01-01T05:33:31.875Z,14.5
2023-01-01T05:35:57.299Z,14.6
2023-01-01T05:38:24.125Z,14.6
2023-01-01T05:40:50.973Z,14.8
2023-01-01T05:43:17.805Z,14.7
2023-01-01T05:45:44.741Z,14.7
2023-01-01T05:48:11.512Z,14.7
2023-01-01T05:53:05.171Z,14.6
2023-01-01T05:55:32.032Z,14.6
2023-01-01T05:57:58.855Z,14.6
2023-01-01T06:00:25.695Z,14.8
2023-01-01T06:02:52.563Z,14.8
2023-01-01T06:05:19.381Z,14.9
2023-01-01T06:07:46.236Z,15.1
2023-01-01T06:10:11.627Z,15.2
2023-01-01T06:12:38.479Z,15.1
2023-01-01T06:15:05.308Z,15.2
2023-01-01T06:17:32.221Z,15
2023-01-01T06:19:58.982Z,15
2023-01-01T06:22:25.852Z,14.9
2023-01-01T06:24:52.686Z,15
2023-01-01T06:27:19.574Z,14.9
2023-01-01T06:29:46.403Z,14.7
2023-01-01T06:32:13.212Z,14.6
2023-01-01T06:34:40.037Z,14.4
2023-01-01T06:37:06.964Z,14.4
2023-01-01T06:39:33.754Z,14.5
2023-01-01T06:41:59.480Z,14.6
2023-01-01T06:44:25.972Z,14.6
2023-01-01T06:46:52.873Z,14.6
2023-01-01T06:49:19.661Z,14.4
2023-01-01T06:51:46.561Z,14.4
2023-01-01T06:54:13.342Z,14.4
2023-01-01T06:56:40.258Z,14.5
2023-01-01T06:59:07.089Z,14.5
2023-01-01T07:01:33.988Z,14.4
2023-01-01T07:04:00.822Z,14.4
2023-01-01T07:06:27.549Z,14.5
2023-01-01T07:08:54.370Z,14.4
2023-01-01T07:11:21.219Z,14.6
2023-01-01T07:13:46.672Z,14.8
2023-01-01T07:16:13.473Z,14.8
2023-01-01T07:18:40.450Z,14.9
2023-01-01T07:21:07.160Z,15
2023-01-01T07:23:34.033Z,15
2023-01-01T07:26:00.842Z,15
2023-01-01T07:28:27.778Z,14.9
2023-01-01T07:30:54.576Z,14.8
2023-01-01T07:33:21.508Z,14.8
2023-01-01T07:35:48.217Z,14.7
2023-01-01T07:38:15.029Z,14.7
2023-01-01T07:40:41.858Z,14.8
2023-01-01T07:43:08.806Z,14.7
2023-01-01T07:45:34.128Z,14.7
2023-01-01T07:48:00.953Z,14.7
2023-01-01T07:50:27.856Z,14.6
2023-01-01T07:52:54.642Z,14.6
2023-01-01T07:55:21.484Z,14.7
2023-01-01T07:57:48.325Z,14.7
2023-01-01T08:00:15.223Z,14.6
2023-01-01T08:02:41.997Z,14.6
2023-01-01T08:05:08.832Z,14.7
2023-01-01T08:07:35.732Z,14.9
2023-01-01T08:10:02.605Z,15.3
2023-01-01T08:12:29.432Z,15.6
2023-01-01T08:14:56.202Z,15.6
2023-01-01T08:17:23.065Z,15.5
2023-01-01T08:19:49.871Z,15.3
2023-01-01T08:22:15.360Z,15
2023-01-01T08:24:42.089Z,14.7
2023-01-01T08:27:09.038Z,14.5
2023-01-01T08:29:35.773Z,14.4
2023-01-01T08:32:02.731Z,14.4
2023-01-01T08:34:29.446Z,14.3
2023-01-01T08:36:56.365Z,14.2
2023-01-01T08:39:23.172Z,14.1
2023-01-01T08:41:50.046Z,14.2
2023-01-01T08:44:16.799Z,14.2
2023-01-01T08:46:43.785Z,14.2
2023-01-01T08:49:10.552Z,14.1
2023-01-01T08:51:37.432Z,14.4
2023-01-01T08:54:04.242Z,14.9
2023-01-01T08:56:31.007Z,15.7
2023-01-01T08:58:57.799Z,15.8
2023-01-01T09:01:24.730Z,16
2023-01-01T09:03:50.160Z,16.2
2023-01-01T09:06:17.062Z,16
2023-01-01T09:08:43.884Z,16
2023-01-01T09:11:10.582Z,16.9
2023-01-01T09:13:37.566Z,17.6
2023-01-01T09:16:04.361Z,18.4
2023-01-01T09:18:31.125Z,18.7
2023-01-01T09:20:57.949Z,18.4
2023-01-01T09:23:24.863Z,17.6
2023-01-01T09:25:51.690Z,16.8
2023-01-01T09:28:18.620Z,16.2
2023-01-01T09:30:45.378Z,15.8
2023-01-01T09:33:12.164Z,15.5
2023-01-01T09:35:38.983Z,15.2
2023-01-01T09:38:04.393Z,14.9
2023-01-01T09:40:31.231Z,14.4
2023-01-01T09:42:58.073Z,14.2
2023-01-01T09:45:25.055Z,14.1
2023-01-01T09:47:51.822Z,14
2023-01-01T09:50:18.589Z,14
2023-01-01T09:52:45.422Z,14
2023-01-01T09:55:12.301Z,13.9
2023-01-01T09:57:39.223Z,13.9
2023-01-01T10:00:06.082Z,13.9
2023-01-01T10:02:32.790Z,13.9
2023-01-01T10:04:59.617Z,14
2023-01-01T10:07:26.460Z,14
2023-01-01T10:09:53.291Z,14.1
2023-01-01T10:12:18.822Z,14.1
2023-01-01T10:14:45.661Z,14.1
2023-01-01T10:17:12.373Z,14.2
2023-01-01T10:19:39.336Z,14.3
2023-01-01T10:22:06.131Z,14.4
2023-01-01T10:24:32.925Z,14.6
2023-01-01T10:26:59.722Z,14.8
2023-01-01T10:29:26.560Z,14.9
2023-01-01T10:31:53.446Z,15.1
2023-01-01T10:34:20.472Z,15.1
2023-01-01T10:36:47.105Z,15.2
2023-01-01T10:39:14.074Z,15.2
2023-01-01T10:41:40.906Z,15.2
2023-01-01T10:44:07.660Z,15.2
2023-01-01T10:46:34.509Z,15.2
2023-01-01T10:48:59.865Z,15.3
2023-01-01T10:51:26.757Z,15.3
2023-01-01T10:53:53.625Z,15.4
2023-01-01T10:56:20.389Z,15.5
2023-01-01T10:58:47.221Z,15.5
2023-01-01T11:01:14.110Z,15.7
2023-01-01T11:03:40.894Z,15.8
2023-01-01T11:06:07.809Z,15.9
2023-01-01T11:08:34.678Z,16
2023-01-01T11:11:01.418Z,16.2
2023-01-01T11:13:28.313Z,16.3
2023-01-01T11:15:55.183Z,16.4
2023-01-01T11:18:22.056Z,16.4
2023-01-01T11:20:48.904Z,16.5
2023-01-01T11:23:15.591Z,16.6
2023-01-01T11:25:41.013Z,16.7
2023-01-01T11:28:07.843Z,16.9
2023-01-01T11:30:34.822Z,17.2
2023-01-01T11:33:01.568Z,17.6
2023-01-01T11:35:28.420Z,17.9
2023-01-01T11:37:55.257Z,18.1
2023-01-01T11:40:22.095Z,18.2
2023-01-01T11:42:49.041Z,18.1
2023-01-01T11:45:15.832Z,18.4
2023-01-01T11:47:42.647Z,18.5
2023-01-01T11:50:09.455Z,18.5
2023-01-01T11:52:36.257Z,18.6
2023-01-01T11:55:03.074Z,18.8
2023-01-01T11:57:29.948Z,18.7
2023-01-01T11:59:56.769Z,18.6
2023-01-01T12:02:22.216Z,18.6
2023-01-01T12:04:49.023Z,18.8
2023-01-01T12:09:42.692Z,18.7
2023-01-01T12:12:09.551Z,18.8
2023-01-01T12:14:36.393Z,18.9
2023-01-01T12:17:03.307Z,18.9
2023-01-01T12:19:30.111Z,18.7
2023-01-01T12:21:56.917Z,18.7
2023-01-01T12:24:23.724Z,18.8
2023-01-01T12:26:50.569Z,18.8
2023-01-01T12:29:17.410Z,18.8
2023-01-01T12:31:44.289Z,18.9
2023-01-01T12:34:12.474Z,18.9
2023-01-01T12:36:36.600Z,18.9
2023-01-01T12:39:03.425Z,19
2023-01-01T12:41:30.300Z,19.1
2023-01-01T12:43:57.111Z,18.9
2023-01-01T12:46:24.008Z,18.9
2023-01-01T12:48:50.764Z,19
2023-01-01T12:51:17.529Z,19.1
2023-01-01T12:53:44.515Z,19.1
2023-01-01T12:56:11.248Z,19.1
2023-01-01T12:58:38.069Z,19.2
2023-01-01T13:01:04.897Z,19.2
2023-01-01T13:03:31.878Z,19.2
2023-01-01T13:05:57.164Z,19.1
2023-01-01T13:08:24.173Z,19.1
2023-01-01T13:10:50.917Z,19.2
2023-01-01T13:13:17.802Z,19.1
2023-01-01T13:15:44.587Z,19.1
2023-01-01T13:18:11.339Z,19
2023-01-01T13:20:38.298Z,18.9
2023-01-01T13:23:05.036Z,18.9
2023-01-01T13:25:32.056Z,18.9
2023-01-01T13:27:58.719Z,19
2023-01-01T13:30:25.545Z,19
2023-01-01T13:32:52.391Z,19
2023-01-01T13:35:19.374Z,18.9
2023-01-01T13:37:46.184Z,18.9
2023-01-01T13:40:11.593Z,18.7
2023-01-01T13:42:38.441Z,18.7
2023-01-01T13:45:05.197Z,18.8
2023-01-01T13:47:32.042Z,18.9
2023-01-01T13:49:58.871Z,18.9
2023-01-01T13:52:25.754Z,18.9
2023-01-01T13:54:52.666Z,18.8
2023-01-01T13:57:19.328Z,18.8
2023-01-01T13:59:46.330Z,18.8
2023-01-01T14:02:13.009Z,18.7
2023-01-01T14:04:39.870Z,18.6
2023-01-01T14:07:06.701Z,18.3
2023-01-01T14:09:33.713Z,18
2023-01-01T14:11:59.034Z,17.8
2023-01-01T14:14:25.863Z,17.6
2023-01-01T14:16:52.632Z,17.4
2023-01-01T14:19:19.474Z,17.2
2023-01-01T14:21:46.394Z,17.1
2023-01-01T14:24:13.145Z,17
2023-01-01T14:26:40.117Z,16.7
2023-01-01T14:29:06.960Z,16.6
2023-01-01T14:31:33.793Z,16.4
2023-01-01T14:34:00.525Z,16.1
2023-01-01T14:36:27.390Z,16
2023-01-01T14:38:54.318Z,15.9
2023-01-01T14:41:21.061Z,15.9
2023-01-01T14:43:46.448Z,15.8
2023-01-01T14:46:13.317Z,15.7
2023-01-01T14:48:40.194Z,15.5
2023-01-01T14:51:07.068Z,15.2
2023-01-01T14:53:33.926Z,14.7
2023-01-01T14:56:00.668Z,14.5
2023-01-01T14:58:27.517Z,14
2023-01-01T15:00:54.368Z,13.8
2023-01-01T15:03:21.182Z,13.6
2023-01-01T15:05:48.062Z,13.3
2023-01-01T15:08:14.834Z,13.2
2023-01-01T15:10:41.708Z,13.1
2023-01-01T15:13:08.518Z,13.1
2023-01-01T15:15:35.381Z,13.1
2023-01-01T15:18:00.921Z,13.2
2023-01-01T15:20:27.654Z,13
2023-01-01T15:22:54.626Z,12.6
2023-01-01T15:27:48.226Z,12.2
2023-01-01T15:30:15.075Z,12
2023-01-01T15:32:41.943Z,12
2023-01-01T15:37:35.489Z,12
2023-01-01T15:40:02.343Z,11.9
2023-01-01T15:42:29.185Z,11.6
2023-01-01T15:44:56.005Z,11.5
2023-01-01T15:47:22.855Z,11.2
2023-01-01T15:49:49.696Z,11.1
2023-01-01T15:52:15.189Z,11.1
2023-01-01T15:54:42.045Z,11.2
2023-01-01T15:57:08.857Z,11
2023-01-01T15:59:35.590Z,10.8
2023-01-01T16:02:02.455Z,10.7
2023-01-01T16:04:29.284Z,10.5
2023-01-01T16:06:56.121Z,10.3
2023-01-01T16:09:22.954Z,10.2
2023-01-01T16:14:16.640Z,10
2023-01-01T16:16:43.449Z,9.9
2023-01-01T16:19:08.913Z,10
2023-01-01T16:21:34.455Z,9.7
2023-01-01T16:26:28.058Z,9.7
2023-01-01T16:28:54.920Z,9.7
2023-01-01T16:31:21.682Z,9.6
2023-01-01T16:36:13.966Z,9.6
2023-01-01T16:38:39.492Z,9.6
2023-01-01T16:41:06.334Z,9.8
2023-01-01T16:43:33.102Z,9.8
2023-01-01T16:45:59.937Z,9.8
2023-01-01T16:48:26.864Z,9.8
2023-01-01T16:50:53.647Z,9.7
2023-01-01T16:53:19.093Z,9.6
2023-01-01T16:55:44.598Z,9.4
2023-01-01T16:58:11.363Z,9.4
2023-01-01T17:00:38.151Z,9.4
2023-01-01T17:03:04.974Z,9.1
2023-01-01T17:05:31.813Z,8.9
2023-01-01T17:07:58.658Z,8.8
2023-01-01T17:10:25.511Z,8.8
2023-01-01T17:12:52.436Z,8.9
2023-01-01T17:15:19.173Z,8.9
2023-01-01T17:17:46.075Z,9
2023-01-01T17:20:11.520Z,9.1
2023-01-01T17:22:36.887Z,9.1
2023-01-01T17:25:03.733Z,9.4
2023-01-01T17:27:30.777Z,9.1
2023-01-01T17:29:57.569Z,9
2023-01-01T17:32:24.395Z,8.9
2023-01-01T17:34:51.078Z,8.7
2023-01-01T17:37:17.986Z,8.7
2023-01-01T17:42:11.702Z,8.6
2023-01-01T17:44:38.627Z,8.5
2023-01-01T17:47:04.096Z,8.4
2023-01-01T17:49:29.499Z,8.4
2023-01-01T17:51:56.353Z,8.4
2023-01-01T17:54:23.158Z,8.4
2023-01-01T17:56:49.996Z,8.3
2023-01-01T17:59:16.831Z,8.2
2023-01-01T18:01:43.619Z,8.1
2023-01-01T18:04:10.504Z,8
2023-01-01T18:06:37.345Z,8.1
2023-01-01T18:09:04.202Z,8
2023-01-01T18:11:30.872Z,8.1
2023-01-01T18:13:56.385Z,8
2023-01-01T18:16:21.846Z,7.7
2023-01-01T18:18:48.674Z,7.6
2023-01-01T18:21:15.537Z,7.6
2023-01-01T18:26:09.230Z,7.5
2023-01-01T18:28:36.083Z,7.5
2023-01-01T18:31:02.970Z,7.3
2023-01-01T18:33:29.631Z,7.3
2023-01-01T18:35:56.604Z,7.3
2023-01-01T18:38:23.333Z,7.2
2023-01-01T18:40:50.289Z,7.2
2023-01-01T18:43:17.069Z,7.2
2023-01-01T18:45:43.950Z,7.1
2023-01-01T18:48:09.248Z,7
2023-01-01T18:50:36.208Z,7.1
2023-01-01T18:53:03.025Z,7
2023-01-01T18:55:29.855Z,7
2023-01-01T18:57:56.607Z,7.1
2023-01-01T19:00:23.454Z,7.1
2023-01-01T19:02:50.376Z,7.1
2023-01-01T19:05:17.289Z,7
2023-01-01T19:07:44.137Z,7
2023-01-01T19:10:09.530Z,6.9
2023-01-01T19:12:34.925Z,6.9
2023-01-01T19:15:01.832Z,6.9
2023-01-01T19:17:29.097Z,6.8
2023-01-01T19:19:55.413Z,6.7
2023-01-01T19:22:22.268Z,6.8
2023-01-01T19:24:49.034Z,6.8
2023-01-01T19:27:15.913Z,6.7
2023-01-01T19:29:42.731Z,6.6
2023-01-01T19:32:09.568Z,6.5
2023-01-01T19:34:36.421Z,6.4
2023-01-01T19:37:03.241Z,6.3
2023-01-01T19:39:30.080Z,6.3
2023-01-01T19:41:56.999Z,6.2
2023-01-01T19:44:22.361Z,6.3
2023-01-01T19:46:49.197Z,6.4
2023-01-01T19:49:16.032Z,6.2
2023-01-01T19:51:42.891Z,6.2
2023-01-01T19:54:09.773Z,6
2023-01-01T19:56:36.556Z,6
2023-01-01T19:59:03.449Z,6
2023-01-01T20:01:30.276Z,6.2
2023-01-01T20:03:57.135Z,6.1
2023-01-01T20:06:23.939Z,6.3
2023-01-01T20:08:50.764Z,6.4
2023-01-01T20:11:17.590Z,6.3
2023-01-01T20:13:44.470Z,6.3
2023-01-01T20:16:11.273Z,6.4
2023-01-01T20:18:36.697Z,6.6
2023-01-01T20:21:03.610Z,6.6
2023-01-01T20:23:30.360Z,6.7
2023-01-01T20:25:57.214Z,6.9
2023-01-01T20:28:24.045Z,7.1
2023-01-01T20:30:50.915Z,7.3
2023-01-01T20:33:17.728Z,7.4
2023-01-01T20:38:11.401Z,7.5
2023-01-01T20:40:38.237Z,7.5
2023-01-01T20:43:05.272Z,7.5
2023-01-01T20:45:31.913Z,7.5
2023-01-01T20:47:58.765Z,7.3
2023-01-01T20:50:25.671Z,7.2
2023-01-01T20:52:52.448Z,7
2023-01-01T20:55:17.916Z,6.8
2023-01-01T20:57:44.732Z,6.8
2023-01-01T21:00:11.615Z,6.8
2023-01-01T21:02:38.366Z,6.8
2023-01-01T21:05:05.203Z,6.8
2023-01-01T21:07:32.135Z,7
2023-01-01T21:09:58.878Z,6.9
2023-01-01T21:12:25.780Z,6.9
2023-01-01T21:14:52.612Z,6.9
2023-01-01T21:17:19.460Z,7
2023-01-01T21:19:46.288Z,6.9
2023-01-01T21:22:13.066Z,6.8
2023-01-01T21:24:40.021Z,6.8
2023-01-01T21:27:06.740Z,6.7
2023-01-01T21:29:32.168Z,6.7
2023-01-01T21:31:59.039Z,6.7
2023-01-01T21:34:25.839Z,6.6
2023-01-01T21:36:52.702Z,6.7
2023-01-01T21:39:19.678Z,6.8
2023-01-01T21:41:46.447Z,6.9
2023-01-01T21:44:13.338Z,6.9
2023-01-01T21:46:40.223Z,6.9
2023-01-01T21:49:06.963Z,6.9
2023-01-01T21:51:33.808Z,6.8
2023-01-01T21:54:00.602Z,6.7
2023-01-01T21:56:27.457Z,6.6
2023-01-01T21:58:54.282Z,6.6
2023-01-01T22:01:19.740Z,6.6
2023-01-01T22:03:46.547Z,6.6
2023-01-01T22:06:13.502Z,6.6
2023-01-01T22:08:40.346Z,6.7
2023-01-01T22:11:07.136Z,6.8
2023-01-01T22:13:33.979Z,6.8
2023-01-01T22:16:00.882Z,6.9
2023-01-01T22:18:27.707Z,7
2023-01-01T22:20:54.384Z,6.9
2023-01-01T22:23:21.317Z,7.1
2023-01-01T22:28:14.935Z,6.9
2023-01-01T22:30:41.834Z,6.9
2023-01-01T22:33:07.211Z,6.9
2023-01-01T22:35:34.036Z,7.1
2023-01-01T22:38:00.850Z,7.4
2023-01-01T22:40:27.692Z,7.8
2023-01-01T22:42:54.544Z,7.8
2023-01-01T22:45:21.363Z,7.8
2023-01-01T22:50:15.108Z,7.5
2023-01-01T22:52:41.922Z,7.4
2023-01-01T22:55:08.727Z,7.3
2023-01-01T22:57:35.574Z,7.3
2023-01-01T23:02:29.322Z,7.1
2023-01-01T23:04:56.082Z,7
2023-01-01T23:07:21.670Z,6.9
2023-01-01T23:09:48.407Z,6.8
2023-01-01T23:12:15.276Z,6.8
2023-01-01T23:14:40.583Z,6.6
2023-01-01T23:17:07.498Z,6.6
2023-01-01T23:19:34.283Z,6.5
2023-01-01T23:22:01.115Z,6.5
2023-01-01T23:24:28.010Z,6.5
2023-01-01T23:26:54.898Z,6.5
2023-01-01T23:29:21.621Z,6.5
2023-01-01T23:31:48.459Z,6.4
2023-01-01T23:34:15.324Z,6.4
2023-01-01T23:39:09.032Z,6.5
2023-01-01T23:41:35.905Z,6.6
2023-01-01T23:44:02.661Z,6.6
2023-01-01T23:46:29.553Z,6.6
2023-01-01T23:48:56.279Z,6.7
2023-01-01T23:51:21.698Z,6.7
2023-01-01T23:53:48.560Z,6.7
2023-01-01T23:56:15.433Z,6.6
2023-01-01T23:58:42.302Z,6.6
